KSLN/SLN METAR and TAF weather

Enter ICAO airport designator
Station Type Date Time Source
KSLN METAR 2021/09/28 03:53 UTC NOAA

KSLN 280353Z 16007KT 10SM CLR 21/14 A2984 RMK AO2 SLP093 T02110139


Station Type Date Time Source
KSLN Decoded METAR 2021/09/28 03:53 UTC NOAA

SALINA MUNICIPAL AIRPORT, KS, United States (KSLN) 38-47N 97-39W 385M
Sep 27, 2021 - 11:53 PM EDT / 2021.09.28 0353 UTC
Wind: from the SSE (160 degrees) at 8 MPH (7 KT):0
Visibility: 10 mile(s):0
Sky conditions: clear
Temperature: 70.0 F (21.1 C)
Dew Point: 57.0 F (13.9 C)
Relative Humidity: 63%
Pressure (altimeter): 29.84 in. Hg (1010 hPa)
ob: KSLN 280353Z 16007KT 10SM CLR 21/14 A2984 RMK AO2 SLP093 T02110139
cycle: 4

Station Type Date Time Source
KSLN TAF 2021/09/27 18:22 UTC NOAA

TAF KSLN 271720Z 2718/2818 21012KT P6SM FEW250
FM272200 17007KT P6SM FEW250

Example: see airport list